Time;durP1;ratioP1;P1;durP2;ratioP2;P2;SDS_P1;SDS_P2;PMS_P1;PMS_P2;Temp;Humidity;BMP_temperature;BMP_pressure;BME280_temperature;BME280_humidity;BME280_pressure;Samples;Min_cycle;Max_cycle;Signal;HPM_P1;HPM_P2
2023/05/31 00:00:50;;;;;;;5.20;2.50;;;;;;;;;;107352;287;44067;-37
2023/05/31 00:03:29;;;;;;;5.20;2.40;;;;;;;;;;107376;285;43333;-37
2023/05/31 00:06:03;;;;;;;5.40;2.30;;;;;;;;;;107380;287;38749;-39
2023/05/31 00:08:37;;;;;;;4.80;2.40;;;;;;;;;;107346;287;40838;-38
2023/05/31 00:11:11;;;;;;;5.80;2.50;;;;;;;;;;107342;284;44230;-36
2023/05/31 00:13:44;;;;;;;4.90;2.40;;;;;;;;;;107292;287;43435;-37
2023/05/31 00:16:18;;;;;;;4.80;2.40;;;;;;;;;;107337;291;39910;-38
2023/05/31 00:19:11;;;;;;;4.50;2.30;;;;;;;;;;107354;285;41172;-36
2023/05/31 00:21:47;;;;;;;5.60;2.50;;;;;;;;;;107361;287;42690;-36
2023/05/31 00:24:21;;;;;;;5.20;2.50;;;;;;;;;;107287;286;49420;-37
2023/05/31 00:26:55;;;;;;;4.80;2.30;;;;;;;;;;107343;285;38789;-37
2023/05/31 00:29:28;;;;;;;5.00;2.30;;;;;;;;;;107210;285;175138;-38
2023/05/31 00:32:02;;;;;;;4.90;2.50;;;;;;;;;;107321;292;44172;-36
2023/05/31 00:34:36;;;;;;;5.20;2.30;;;;;;;;;;107333;284;48194;-37
2023/05/31 00:37:10;;;;;;;4.80;2.30;;;;;;;;;;107337;287;39098;-37
2023/05/31 00:39:46;;;;;;;4.80;2.50;;;;;;;;;;107286;289;40069;-39
2023/05/31 00:42:20;;;;;;;5.70;2.60;;;;;;;;;;107322;283;43024;-38
2023/05/31 00:44:53;;;;;;;5.70;2.60;;;;;;;;;;107342;287;49347;-38
2023/05/31 00:47:27;;;;;;;5.20;2.50;;;;;;;;;;107384;285;39919;-38
2023/05/31 00:50:01;;;;;;;4.70;2.50;;;;;;;;;;107374;287;39862;-38
2023/05/31 00:52:36;;;;;;;4.90;2.30;;;;;;;;;;107341;287;43170;-38
2023/05/31 00:55:12;;;;;;;5.40;2.40;;;;;;;;;;107349;285;49462;-38
2023/05/31 00:57:46;;;;;;;4.30;2.20;;;;;;;;;;107366;287;38848;-38
2023/05/31 01:00:20;;;;;;;4.10;2.20;;;;;;;;;;107329;285;39826;-37
2023/05/31 01:02:54;;;;;;;5.40;2.70;;;;;;;;;;107344;286;43053;-38
2023/05/31 01:05:28;;;;;;;4.60;2.20;;;;;;;;;;107372;287;50810;-37
2023/05/31 01:08:01;;;;;;;5.00;2.50;;;;;;;;;;107355;287;38793;-38
2023/05/31 01:10:36;;;;;;;5.10;2.10;;;;;;;;;;107362;285;40039;-37
2023/05/31 01:13:21;;;;;;;4.50;2.40;;;;;;;;;;107366;287;42940;-37
2023/05/31 01:16:02;;;;;;;4.30;2.40;;;;;;;;;;106968;285;514206;-37
2023/05/31 01:18:46;;;;;;;4.60;2.30;;;;;;;;;;107343;286;38765;-37
2023/05/31 01:21:21;;;;;;;5.10;2.50;;;;;;;;;;107353;287;39869;-36
2023/05/31 01:24:13;;;;;;;5.00;2.20;;;;;;;;;;107341;287;42943;-37
2023/05/31 01:26:49;;;;;;;4.90;2.50;;;;;;;;;;106726;285;893311;-38
2023/05/31 01:29:27;;;;;;;4.70;2.20;;;;;;;;;;107352;285;38819;-37
2023/05/31 01:32:02;;;;;;;5.10;2.40;;;;;;;;;;107369;287;39917;-38
2023/05/31 01:34:36;;;;;;;4.80;2.30;;;;;;;;;;107351;288;42647;-36
2023/05/31 01:37:12;;;;;;;4.40;2.30;;;;;;;;;;107399;287;41885;-36
2023/05/31 01:39:46;;;;;;;4.90;2.50;;;;;;;;;;107333;287;38785;-35
2023/05/31 01:42:21;;;;;;;4.30;2.30;;;;;;;;;;107353;285;39781;-36
2023/05/31 01:44:55;;;;;;;4.60;2.20;;;;;;;;;;107335;287;42693;-35
2023/05/31 01:47:30;;;;;;;4.30;2.20;;;;;;;;;;107383;285;42524;-35
2023/05/31 01:50:07;;;;;;;4.20;2.10;;;;;;;;;;107360;287;38824;-36
2023/05/31 01:52:41;;;;;;;5.00;2.50;;;;;;;;;;107364;285;39883;-36
2023/05/31 01:55:15;;;;;;;4.70;2.10;;;;;;;;;;107322;287;42691;-37
2023/05/31 01:57:50;;;;;;;5.10;2.30;;;;;;;;;;107408;287;42601;-36
2023/05/31 02:00:25;;;;;;;4.30;2.00;;;;;;;;;;107375;287;38760;-37
2023/05/31 02:02:59;;;;;;;4.80;2.00;;;;;;;;;;107349;285;39797;-37
2023/05/31 02:05:33;;;;;;;4.50;2.20;;;;;;;;;;107354;286;44126;-37
2023/05/31 02:08:08;;;;;;;4.70;2.10;;;;;;;;;;107348;285;42183;-36
2023/05/31 02:10:41;;;;;;;4.50;2.10;;;;;;;;;;107376;285;40193;-36
2023/05/31 02:13:15;;;;;;;4.50;2.10;;;;;;;;;;107384;287;41681;-36
2023/05/31 02:15:48;;;;;;;4.00;2.00;;;;;;;;;;107298;287;44012;-35
2023/05/31 02:18:22;;;;;;;4.40;2.10;;;;;;;;;;107375;285;42293;-35
2023/05/31 02:20:55;;;;;;;4.40;1.90;;;;;;;;;;107347;287;38792;-37
2023/05/31 02:23:28;;;;;;;4.70;2.00;;;;;;;;;;107356;287;39773;-37
2023/05/31 02:26:03;;;;;;;4.10;2.10;;;;;;;;;;107321;284;43275;-38
2023/05/31 02:28:37;;;;;;;4.50;2.00;;;;;;;;;;107346;287;42079;-36
2023/05/31 02:31:12;;;;;;;4.80;2.20;;;;;;;;;;107312;285;39287;-36
2023/05/31 02:33:45;;;;;;;4.30;1.90;;;;;;;;;;107400;287;39757;-36
2023/05/31 02:36:19;;;;;;;4.30;2.00;;;;;;;;;;107422;286;42983;-36
2023/05/31 02:38:53;;;;;;;4.50;2.00;;;;;;;;;;107281;285;43756;-36
2023/05/31 02:41:26;;;;;;;4.50;2.30;;;;;;;;;;107437;285;39927;-36
2023/05/31 02:44:00;;;;;;;4.60;2.40;;;;;;;;;;107434;287;40994;-37
2023/05/31 02:46:34;;;;;;;5.00;2.10;;;;;;;;;;107377;287;44866;-36
2023/05/31 02:49:08;;;;;;;4.70;2.10;;;;;;;;;;107256;285;175512;-36
2023/05/31 02:51:41;;;;;;;4.30;2.00;;;;;;;;;;107411;287;38589;-36
2023/05/31 02:54:15;;;;;;;5.20;2.10;;;;;;;;;;107331;285;42166;-36
2023/05/31 02:56:49;;;;;;;4.50;1.90;;;;;;;;;;107363;285;43016;-36
2023/05/31 02:59:22;;;;;;;4.20;1.90;;;;;;;;;;107411;285;44208;-36
2023/05/31 03:01:56;;;;;;;4.50;2.10;;;;;;;;;;107413;287;38861;-36
2023/05/31 03:04:30;;;;;;;4.80;2.00;;;;;;;;;;106760;285;893313;-37
2023/05/31 03:07:07;;;;;;;4.70;1.90;;;;;;;;;;107367;285;43033;-36
2023/05/31 03:09:41;;;;;;;4.50;2.20;;;;;;;;;;107393;280;42403;-36
2023/05/31 03:12:16;;;;;;;4.40;2.10;;;;;;;;;;107409;285;38786;-36
2023/05/31 03:14:50;;;;;;;4.30;2.00;;;;;;;;;;107377;287;40462;-36
2023/05/31 03:17:25;;;;;;;4.70;2.00;;;;;;;;;;107348;289;43162;-36
2023/05/31 03:20:00;;;;;;;4.60;2.30;;;;;;;;;;106739;288;892587;-36
2023/05/31 03:22:33;;;;;;;4.10;1.90;;;;;;;;;;107371;287;38897;-36
2023/05/31 03:25:10;;;;;;;4.50;1.90;;;;;;;;;;107392;285;39765;-36
2023/05/31 03:27:44;;;;;;;4.20;1.80;;;;;;;;;;107355;288;43019;-36
2023/05/31 03:30:18;;;;;;;4.10;2.00;;;;;;;;;;107366;287;42167;-36
2023/05/31 03:32:52;;;;;;;4.40;2.10;;;;;;;;;;107402;285;38805;-36
2023/05/31 03:35:26;;;;;;;3.60;1.70;;;;;;;;;;107359;287;39951;-36
2023/05/31 03:38:01;;;;;;;4.40;2.00;;;;;;;;;;107333;285;42958;-36
2023/05/31 03:40:34;;;;;;;4.10;1.80;;;;;;;;;;107426;287;44404;-36
2023/05/31 03:43:08;;;;;;;5.00;2.00;;;;;;;;;;107409;285;38771;-36
2023/05/31 03:45:41;;;;;;;4.30;1.80;;;;;;;;;;107405;287;39734;-36
2023/05/31 03:48:15;;;;;;;3.60;1.70;;;;;;;;;;107335;287;44170;-36
2023/05/31 03:50:49;;;;;;;3.80;1.80;;;;;;;;;;107394;287;44647;-36
2023/05/31 03:53:22;;;;;;;4.50;1.70;;;;;;;;;;107351;287;40076;-36
2023/05/31 03:55:58;;;;;;;4.60;1.80;;;;;;;;;;107386;285;40982;-36
2023/05/31 03:58:32;;;;;;;4.00;1.70;;;;;;;;;;107351;285;42904;-36
2023/05/31 04:01:09;;;;;;;3.90;1.70;;;;;;;;;;107389;287;43415;-36
2023/05/31 04:03:42;;;;;;;3.80;1.70;;;;;;;;;;107417;285;38516;-36
2023/05/31 04:06:20;;;;;;;3.90;1.70;;;;;;;;;;107393;287;40917;-36
2023/05/31 04:08:54;;;;;;;3.40;1.50;;;;;;;;;;107222;285;175515;-36
2023/05/31 04:11:29;;;;;;;4.20;1.70;;;;;;;;;;107403;287;42135;-36
2023/05/31 04:14:03;;;;;;;3.80;1.70;;;;;;;;;;107368;289;39895;-36
2023/05/31 04:16:37;;;;;;;4.00;1.60;;;;;;;;;;107441;287;40079;-36
2023/05/31 04:19:14;;;;;;;4.10;1.60;;;;;;;;;;107366;287;43013;-36
2023/05/31 04:21:48;;;;;;;4.30;1.80;;;;;;;;;;107375;287;42341;-36
2023/05/31 04:24:21;;;;;;;4.00;1.60;;;;;;;;;;107435;285;39034;-36
2023/05/31 04:26:55;;;;;;;4.00;1.70;;;;;;;;;;107400;285;39788;-36
2023/05/31 04:29:28;;;;;;;3.90;1.60;;;;;;;;;;107356;285;42913;-36
2023/05/31 04:32:02;;;;;;;4.30;1.60;;;;;;;;;;107369;285;42366;-36
2023/05/31 04:34:36;;;;;;;4.00;1.40;;;;;;;;;;107378;285;38916;-36
2023/05/31 04:37:10;;;;;;;4.60;1.60;;;;;;;;;;107366;287;39662;-36
2023/05/31 04:39:44;;;;;;;5.00;1.90;;;;;;;;;;107364;287;48894;-36
2023/05/31 04:42:18;;;;;;;4.20;1.70;;;;;;;;;;107461;287;44261;-36
2023/05/31 04:44:54;;;;;;;4.80;1.70;;;;;;;;;;107407;287;38763;-37
2023/05/31 04:47:28;;;;;;;4.60;1.90;;;;;;;;;;107395;287;39889;-36
2023/05/31 04:50:03;;;;;;;4.40;1.70;;;;;;;;;;107489;287;49876;-36
2023/05/31 04:52:39;;;;;;;4.50;1.70;;;;;;;;;;107440;285;42255;-36
2023/05/31 04:55:14;;;;;;;3.90;1.50;;;;;;;;;;107434;287;38774;-36
2023/05/31 04:57:47;;;;;;;4.50;1.80;;;;;;;;;;107411;285;40818;-36
2023/05/31 05:00:23;;;;;;;3.70;1.60;;;;;;;;;;107386;288;50026;-36
2023/05/31 05:02:57;;;;;;;3.80;1.50;;;;;;;;;;107393;287;42186;-36
2023/05/31 05:05:31;;;;;;;4.30;2.00;;;;;;;;;;107397;287;38788;-33
2023/05/31 05:08:05;;;;;;;4.10;1.70;;;;;;;;;;107351;287;40939;-34
2023/05/31 05:10:40;;;;;;;4.90;1.50;;;;;;;;;;107376;287;49068;-34
2023/05/31 05:13:15;;;;;;;4.60;1.60;;;;;;;;;;106744;285;894511;-34
2023/05/31 05:15:49;;;;;;;4.50;1.60;;;;;;;;;;107399;287;40228;-35
2023/05/31 05:18:23;;;;;;;3.30;1.40;;;;;;;;;;107378;287;39669;-32
2023/05/31 05:20:57;;;;;;;4.50;1.70;;;;;;;;;;107329;287;50233;-33
2023/05/31 05:23:34;;;;;;;4.00;1.50;;;;;;;;;;107395;287;43237;-34
2023/05/31 05:26:10;;;;;;;4.20;1.60;;;;;;;;;;107371;285;38807;-34
2023/05/31 05:28:43;;;;;;;4.70;2.00;;;;;;;;;;107391;287;39689;-34
2023/05/31 05:31:17;;;;;;;4.20;1.50;;;;;;;;;;107346;287;51462;-33
2023/05/31 05:33:52;;;;;;;4.00;1.40;;;;;;;;;;107369;287;43480;-34
2023/05/31 05:36:28;;;;;;;3.80;1.30;;;;;;;;;;107397;285;38781;-33
2023/05/31 05:39:07;;;;;;;4.30;1.50;;;;;;;;;;107394;287;39866;-33
2023/05/31 05:41:40;;;;;;;4.10;1.50;;;;;;;;;;107346;287;49569;-33
2023/05/31 05:44:14;;;;;;;3.60;1.40;;;;;;;;;;107381;287;41915;-33
2023/05/31 05:46:48;;;;;;;5.20;1.90;;;;;;;;;;107403;285;38858;-33
2023/05/31 05:49:22;;;;;;;4.10;1.40;;;;;;;;;;107351;287;39705;-33
2023/05/31 05:51:55;;;;;;;3.20;1.10;;;;;;;;;;107350;285;48891;-34
2023/05/31 05:54:29;;;;;;;3.60;1.30;;;;;;;;;;107368;287;42255;-33
2023/05/31 05:57:03;;;;;;;3.90;1.40;;;;;;;;;;107396;287;38859;-33
2023/05/31 05:59:37;;;;;;;3.90;1.50;;;;;;;;;;107405;287;39703;-34
2023/05/31 06:02:11;;;;;;;3.50;1.30;;;;;;;;;;107341;288;48548;-33
2023/05/31 06:04:49;;;;;;;3.30;1.30;;;;;;;;;;107357;291;42160;-34
2023/05/31 06:07:23;;;;;;;3.80;1.50;;;;;;;;;;107417;287;38859;-34
2023/05/31 06:09:56;;;;;;;3.90;1.40;;;;;;;;;;107395;285;40839;-33
2023/05/31 06:12:32;;;;;;;3.10;1.30;;;;;;;;;;107373;285;48719;-34
2023/05/31 06:15:07;;;;;;;4.10;1.30;;;;;;;;;;107370;287;42082;-34
2023/05/31 06:17:41;;;;;;;3.60;1.20;;;;;;;;;;107416;287;38843;-34
2023/05/31 06:20:16;;;;;;;3.50;1.30;;;;;;;;;;107396;287;40038;-34
2023/05/31 06:22:52;;;;;;;3.80;1.30;;;;;;;;;;107487;280;48656;-35
2023/05/31 06:25:26;;;;;;;3.30;1.40;;;;;;;;;;107395;287;42274;-34
2023/05/31 06:27:59;;;;;;;3.60;1.40;;;;;;;;;;107399;287;38900;-34
2023/05/31 06:30:33;;;;;;;3.60;1.30;;;;;;;;;;107409;287;41131;-34
2023/05/31 06:33:07;;;;;;;3.70;1.60;;;;;;;;;;107380;288;48799;-32
2023/05/31 06:35:42;;;;;;;3.40;1.20;;;;;;;;;;107391;287;42170;-33
2023/05/31 06:38:18;;;;;;;3.10;1.20;;;;;;;;;;107414;287;38557;-35
2023/05/31 06:40:54;;;;;;;3.70;1.20;;;;;;;;;;107414;285;41067;-35
2023/05/31 06:43:27;;;;;;;3.90;1.40;;;;;;;;;;107351;287;49844;-35
2023/05/31 06:46:01;;;;;;;3.10;1.20;;;;;;;;;;107376;287;43278;-35
2023/05/31 06:48:34;;;;;;;3.80;1.30;;;;;;;;;;107390;287;38781;-33
2023/05/31 06:51:09;;;;;;;4.00;1.30;;;;;;;;;;107401;285;40831;-32
2023/05/31 06:53:43;;;;;;;3.50;1.20;;;;;;;;;;107259;289;50004;-35
2023/05/31 06:56:19;;;;;;;2.90;1.10;;;;;;;;;;107422;287;42147;-35
2023/05/31 06:58:53;;;;;;;3.40;1.20;;;;;;;;;;107385;287;38765;-34
2023/05/31 07:01:28;;;;;;;4.30;1.30;;;;;;;;;;107437;286;39710;-34
2023/05/31 07:04:04;;;;;;;3.30;1.20;;;;;;;;;;107323;287;50990;-34
2023/05/31 07:06:39;;;;;;;3.80;1.40;;;;;;;;;;107398;287;42178;-34
2023/05/31 07:09:13;;;;;;;3.80;1.30;;;;;;;;;;107447;287;38911;-33
2023/05/31 07:11:48;;;;;;;3.20;1.20;;;;;;;;;;107439;287;39872;-33
2023/05/31 07:14:23;;;;;;;2.90;1.20;;;;;;;;;;107401;285;48777;-33
2023/05/31 07:16:57;;;;;;;3.50;1.30;;;;;;;;;;107401;280;42361;-33
2023/05/31 07:19:43;;;;;;;4.50;1.40;;;;;;;;;;107418;287;38873;-32
2023/05/31 07:22:22;;;;;;;3.20;1.20;;;;;;;;;;107237;285;192728;-34
2023/05/31 07:24:57;;;;;;;3.30;1.10;;;;;;;;;;107365;287;49408;-33
2023/05/31 07:27:32;;;;;;;4.20;1.40;;;;;;;;;;107366;287;42180;-34
2023/05/31 07:30:10;;;;;;;4.40;1.20;;;;;;;;;;107398;287;38605;-34
2023/05/31 07:32:46;;;;;;;3.40;1.20;;;;;;;;;;107366;285;39719;-35
2023/05/31 07:35:20;;;;;;;3.80;1.30;;;;;;;;;;107366;287;43274;-33
2023/05/31 07:37:56;;;;;;;3.70;1.30;;;;;;;;;;107360;287;42174;-34
2023/05/31 07:40:29;;;;;;;3.80;1.20;;;;;;;;;;107399;287;38979;-33
2023/05/31 07:43:03;;;;;;;4.30;1.30;;;;;;;;;;107333;287;39593;-35
2023/05/31 07:45:36;;;;;;;4.00;1.30;;;;;;;;;;107359;287;43524;-33
2023/05/31 07:48:13;;;;;;;4.10;1.60;;;;;;;;;;107386;287;41972;-34
2023/05/31 07:50:47;;;;;;;4.60;1.60;;;;;;;;;;107380;287;38793;-33
2023/05/31 07:53:23;;;;;;;4.30;1.30;;;;;;;;;;107353;287;39771;-33
2023/05/31 07:56:00;;;;;;;3.80;1.40;;;;;;;;;;107373;287;42936;-35
2023/05/31 07:58:34;;;;;;;3.80;1.40;;;;;;;;;;107367;288;43207;-33
2023/05/31 08:01:08;;;;;;;3.40;1.10;;;;;;;;;;107363;287;38862;-33
2023/05/31 08:03:44;;;;;;;3.70;1.30;;;;;;;;;;107335;285;39760;-33
2023/05/31 08:06:18;;;;;;;3.50;1.30;;;;;;;;;;107364;285;43075;-34
2023/05/31 08:08:55;;;;;;;3.90;1.30;;;;;;;;;;107367;287;44400;-34
2023/05/31 08:11:28;;;;;;;3.30;1.20;;;;;;;;;;107266;287;38861;-35
2023/05/31 08:14:02;;;;;;;3.60;1.30;;;;;;;;;;107282;287;39731;-34
2023/05/31 08:16:36;;;;;;;3.50;1.30;;;;;;;;;;107337;283;42798;-33
2023/05/31 08:19:10;;;;;;;3.30;1.20;;;;;;;;;;107336;287;44310;-34
2023/05/31 08:21:45;;;;;;;3.30;1.20;;;;;;;;;;107313;287;39221;-35
2023/05/31 08:24:18;;;;;;;3.90;1.40;;;;;;;;;;107313;285;39778;-33
2023/05/31 08:26:51;;;;;;;4.10;1.30;;;;;;;;;;107333;287;43046;-34
2023/05/31 08:29:25;;;;;;;2.90;1.10;;;;;;;;;;107300;285;43389;-34
2023/05/31 08:31:59;;;;;;;2.90;1.10;;;;;;;;;;107224;287;175474;-33
2023/05/31 08:34:33;;;;;;;2.90;1.00;;;;;;;;;;107316;279;40866;-35
2023/05/31 08:37:08;;;;;;;3.00;1.10;;;;;;;;;;107313;287;43028;-35
2023/05/31 08:39:41;;;;;;;3.20;1.00;;;;;;;;;;107332;287;42262;-33
2023/05/31 08:42:22;;;;;;;3.30;1.10;;;;;;;;;;107334;287;39996;-34
2023/05/31 08:44:57;;;;;;;3.00;0.90;;;;;;;;;;107308;287;40173;-35
2023/05/31 08:47:39;;;;;;;3.00;1.00;;;;;;;;;;107344;292;43134;-35
2023/05/31 08:50:14;;;;;;;3.60;1.10;;;;;;;;;;107344;288;42323;-35
2023/05/31 08:52:51;;;;;;;3.10;1.10;;;;;;;;;;107347;285;38641;-34
2023/05/31 08:55:26;;;;;;;3.40;1.00;;;;;;;;;;107338;287;40873;-35
2023/05/31 08:58:02;;;;;;;3.00;1.10;;;;;;;;;;107339;287;43045;-37
2023/05/31 09:00:38;;;;;;;3.30;1.00;;;;;;;;;;107361;287;42205;-37
2023/05/31 09:03:12;;;;;;;2.70;1.00;;;;;;;;;;107348;287;40212;-37
2023/05/31 09:05:48;;;;;;;3.80;1.10;;;;;;;;;;107296;287;39736;-37
2023/05/31 09:08:21;;;;;;;3.70;1.00;;;;;;;;;;107346;285;42920;-37
2023/05/31 09:10:56;;;;;;;2.80;1.00;;;;;;;;;;107350;287;42566;-36
2023/05/31 09:13:31;;;;;;;3.00;1.00;;;;;;;;;;107349;287;38640;-37
2023/05/31 09:16:08;;;;;;;2.50;0.90;;;;;;;;;;106924;287;539002;-37
2023/05/31 09:18:43;;;;;;;3.60;1.10;;;;;;;;;;107317;287;43865;-36
2023/05/31 09:21:18;;;;;;;3.10;1.00;;;;;;;;;;107365;287;42315;-37
2023/05/31 09:23:58;;;;;;;2.90;0.90;;;;;;;;;;107360;285;38940;-37
2023/05/31 09:26:33;;;;;;;3.10;0.90;;;;;;;;;;107343;280;39719;-36
2023/05/31 09:29:11;;;;;;;3.20;0.90;;;;;;;;;;107351;285;43000;-37
2023/05/31 09:31:45;;;;;;;2.60;0.90;;;;;;;;;;107377;287;43280;-37
2023/05/31 09:34:30;;;;;;;3.10;0.90;;;;;;;;;;107362;285;38876;-37
2023/05/31 09:37:04;;;;;;;2.30;0.80;;;;;;;;;;107187;285;175471;-38
2023/05/31 09:39:38;;;;;;;2.40;0.70;;;;;;;;;;107260;287;43991;-37
2023/05/31 09:42:17;;;;;;;3.10;0.90;;;;;;;;;;107352;285;42527;-37
2023/05/31 09:44:58;;;;;;;3.10;0.90;;;;;;;;;;107345;284;38972;-37
2023/05/31 09:47:32;;;;;;;2.10;0.80;;;;;;;;;;107296;287;40973;-37
2023/05/31 09:50:07;;;;;;;2.70;0.90;;;;;;;;;;107349;287;44072;-39
2023/05/31 09:52:41;;;;;;;2.30;0.70;;;;;;;;;;107357;287;42628;-39
2023/05/31 09:55:18;;;;;;;2.20;0.80;;;;;;;;;;107334;287;39932;-39
2023/05/31 09:57:57;;;;;;;2.10;0.80;;;;;;;;;;107408;287;46441;-36
2023/05/31 10:00:32;;;;;;;2.30;0.70;;;;;;;;;;107252;285;175519;-36
2023/05/31 10:03:08;;;;;;;3.10;1.00;;;;;;;;;;107355;285;42608;-36
2023/05/31 10:05:44;;;;;;;2.10;0.90;;;;;;;;;;107162;287;175470;-35
2023/05/31 10:08:18;;;;;;;2.40;0.90;;;;;;;;;;107323;286;45771;-37
2023/05/31 10:10:55;;;;;;;2.80;0.80;;;;;;;;;;107367;285;42897;-37
2023/05/31 10:13:31;;;;;;;2.10;0.80;;;;;;;;;;107229;287;175154;-37
2023/05/31 10:16:11;;;;;;;1.70;0.70;;;;;;;;;;107334;285;38876;-36
2023/05/31 10:18:51;;;;;;;2.10;0.70;;;;;;;;;;107318;285;46305;-36
2023/05/31 10:21:27;;;;;;;1.90;0.60;;;;;;;;;;107331;285;43078;-36
2023/05/31 10:24:04;;;;;;;2.10;0.70;;;;;;;;;;107327;287;42276;-36
2023/05/31 10:26:48;;;;;;;3.60;0.70;;;;;;;;;;107295;286;38754;-35
2023/05/31 10:29:27;;;;;;;2.10;0.80;;;;;;;;;;107314;286;39817;-34
2023/05/31 10:32:09;;;;;;;2.40;0.70;;;;;;;;;;107305;287;44903;-35
2023/05/31 10:34:42;;;;;;;2.10;0.80;;;;;;;;;;107328;287;43422;-36
2023/05/31 10:37:17;;;;;;;2.20;0.70;;;;;;;;;;107256;287;40025;-36
2023/05/31 10:39:56;;;;;;;2.80;0.80;;;;;;;;;;107317;287;39839;-36
2023/05/31 10:42:39;;;;;;;2.50;0.80;;;;;;;;;;107303;286;44107;-36
2023/05/31 10:45:21;;;;;;;2.50;0.80;;;;;;;;;;107289;287;43614;-36
2023/05/31 10:48:00;;;;;;;2.70;0.80;;;;;;;;;;107319;287;40184;-37
2023/05/31 10:50:34;;;;;;;3.60;0.90;;;;;;;;;;107312;287;39648;-36
2023/05/31 10:53:14;;;;;;;3.30;0.80;;;;;;;;;;107325;287;43277;-38
2023/05/31 10:55:50;;;;;;;3.30;1.00;;;;;;;;;;107359;285;42020;-39
2023/05/31 10:58:31;;;;;;;2.50;0.90;;;;;;;;;;107306;285;38703;-40
2023/05/31 11:01:09;;;;;;;3.30;0.90;;;;;;;;;;107341;285;39956;-36
2023/05/31 11:03:49;;;;;;;3.10;1.10;;;;;;;;;;107219;285;175448;-35
2023/05/31 11:06:28;;;;;;;2.80;0.90;;;;;;;;;;107289;287;43359;-36
2023/05/31 11:09:05;;;;;;;3.10;1.00;;;;;;;;;;107289;289;39148;-35
2023/05/31 11:11:49;;;;;;;2.80;1.00;;;;;;;;;;107308;285;39607;-38
2023/05/31 11:14:34;;;;;;;2.80;0.90;;;;;;;;;;107365;288;43847;-36
2023/05/31 11:17:22;;;;;;;3.30;1.20;;;;;;;;;;107335;280;44351;-36
2023/05/31 11:19:58;;;;;;;2.70;0.80;;;;;;;;;;107289;287;44879;-35
2023/05/31 11:22:32;;;;;;;2.60;0.80;;;;;;;;;;107318;285;40823;-35
2023/05/31 11:25:10;;;;;;;2.70;0.80;;;;;;;;;;107342;285;43374;-36
2023/05/31 11:27:48;;;;;;;3.10;1.00;;;;;;;;;;107318;280;43029;-36
2023/05/31 11:30:21;;;;;;;3.10;0.90;;;;;;;;;;107353;287;46324;-36
2023/05/31 11:33:18;;;;;;;2.70;1.10;;;;;;;;;;107409;284;39738;-35
2023/05/31 11:35:52;;;;;;;3.00;0.90;;;;;;;;;;107309;289;43057;-33
2023/05/31 11:38:25;;;;;;;3.20;1.00;;;;;;;;;;107288;284;41896;-33
2023/05/31 11:41:08;;;;;;;3.20;1.00;;;;;;;;;;107301;289;39869;-35
2023/05/31 11:43:42;;;;;;;3.80;1.00;;;;;;;;;;107369;289;40625;-35
2023/05/31 11:46:15;;;;;;;3.10;1.10;;;;;;;;;;107299;288;43211;-35
2023/05/31 11:48:49;;;;;;;2.40;1.00;;;;;;;;;;107234;287;42548;-35
2023/05/31 11:51:23;;;;;;;2.80;1.00;;;;;;;;;;107291;289;40116;-35
2023/05/31 11:54:00;;;;;;;2.90;1.00;;;;;;;;;;107276;286;39801;-35
2023/05/31 11:56:36;;;;;;;2.70;1.00;;;;;;;;;;107278;286;44355;-35
2023/05/31 11:59:10;;;;;;;3.00;1.10;;;;;;;;;;107287;288;42554;-35
2023/05/31 12:01:43;;;;;;;3.20;1.00;;;;;;;;;;107334;286;40008;-35
2023/05/31 12:04:17;;;;;;;2.50;0.90;;;;;;;;;;107356;288;41018;-35
2023/05/31 12:06:53;;;;;;;2.20;0.90;;;;;;;;;;107306;289;45045;-35
2023/05/31 12:09:28;;;;;;;3.30;1.10;;;;;;;;;;107271;289;42400;-35
2023/05/31 12:12:05;;;;;;;2.60;1.00;;;;;;;;;;107287;288;39064;-35
2023/05/31 12:14:38;;;;;;;3.10;1.10;;;;;;;;;;107296;288;39777;-35
2023/05/31 12:17:11;;;;;;;2.50;1.00;;;;;;;;;;107284;288;43239;-35
2023/05/31 12:19:47;;;;;;;3.30;1.00;;;;;;;;;;107267;285;42265;-36
2023/05/31 12:22:22;;;;;;;2.00;0.80;;;;;;;;;;107298;288;40090;-36
2023/05/31 12:24:59;;;;;;;2.80;1.00;;;;;;;;;;107288;288;40248;-36
2023/05/31 12:27:32;;;;;;;3.10;1.00;;;;;;;;;;107324;288;43017;-36
2023/05/31 12:30:21;;;;;;;4.10;1.00;;;;;;;;;;107254;286;42039;-37
2023/05/31 12:33:08;;;;;;;2.50;1.00;;;;;;;;;;107287;289;38608;-37
2023/05/31 12:35:48;;;;;;;2.30;0.90;;;;;;;;;;107306;287;39962;-36
2023/05/31 12:38:29;;;;;;;3.00;1.00;;;;;;;;;;107357;287;43067;-36
2023/05/31 12:41:05;;;;;;;2.60;0.80;;;;;;;;;;107280;287;42719;-36
2023/05/31 12:43:38;;;;;;;2.80;0.80;;;;;;;;;;107323;287;38633;-36
2023/05/31 12:46:11;;;;;;;2.30;0.90;;;;;;;;;;107333;285;39543;-36
2023/05/31 12:48:49;;;;;;;2.80;0.90;;;;;;;;;;107298;285;44524;-36
2023/05/31 12:51:27;;;;;;;2.30;0.90;;;;;;;;;;107303;285;42144;-37
2023/05/31 12:54:04;;;;;;;2.60;0.80;;;;;;;;;;107350;285;38817;-35
2023/05/31 12:56:37;;;;;;;2.20;0.80;;;;;;;;;;107318;285;39829;-36
2023/05/31 12:59:14;;;;;;;2.80;0.90;;;;;;;;;;107353;287;43020;-35
2023/05/31 13:01:48;;;;;;;3.50;1.00;;;;;;;;;;107306;287;42133;-34
2023/05/31 13:04:21;;;;;;;2.10;0.90;;;;;;;;;;107364;285;38991;-34
2023/05/31 13:06:57;;;;;;;2.30;0.90;;;;;;;;;;107296;286;39716;-35
2023/05/31 13:09:32;;;;;;;2.90;0.90;;;;;;;;;;107302;285;45540;-34
2023/05/31 13:12:06;;;;;;;3.60;1.00;;;;;;;;;;107351;287;42026;-35
2023/05/31 13:14:40;;;;;;;2.50;0.90;;;;;;;;;;107294;287;38742;-36
2023/05/31 13:17:13;;;;;;;3.10;1.10;;;;;;;;;;107314;287;39835;-36
2023/05/31 13:19:46;;;;;;;2.90;1.00;;;;;;;;;;107312;287;43074;-35
2023/05/31 13:22:42;;;;;;;2.10;0.90;;;;;;;;;;107338;285;48845;-36
2023/05/31 13:25:19;;;;;;;2.70;1.00;;;;;;;;;;107337;285;38875;-36
2023/05/31 13:28:11;;;;;;;3.60;0.90;;;;;;;;;;107336;285;39716;-36
2023/05/31 13:30:44;;;;;;;2.70;1.00;;;;;;;;;;107280;284;43083;-36
2023/05/31 13:33:18;;;;;;;2.90;0.90;;;;;;;;;;107281;287;43315;-36
2023/05/31 13:35:51;;;;;;;4.30;1.00;;;;;;;;;;107312;285;40174;-35
2023/05/31 13:38:26;;;;;;;2.80;0.90;;;;;;;;;;107342;287;39573;-36
2023/05/31 13:41:02;;;;;;;2.90;1.10;;;;;;;;;;107300;285;42949;-35
2023/05/31 13:43:37;;;;;;;1.90;0.80;;;;;;;;;;107357;287;42142;-36
2023/05/31 13:46:11;;;;;;;2.30;0.80;;;;;;;;;;107308;287;38809;-36
2023/05/31 13:49:03;;;;;;;2.20;1.00;;;;;;;;;;107286;287;39740;-36
2023/05/31 13:51:41;;;;;;;3.30;1.00;;;;;;;;;;107281;285;42950;-36
2023/05/31 13:54:18;;;;;;;2.30;0.90;;;;;;;;;;107364;285;42235;-36
2023/05/31 13:56:58;;;;;;;2.70;1.10;;;;;;;;;;107353;286;39035;-35
2023/05/31 13:59:33;;;;;;;3.20;0.90;;;;;;;;;;107327;288;39719;-34
2023/05/31 14:02:07;;;;;;;2.70;1.20;;;;;;;;;;107333;287;42898;-34
2023/05/31 14:04:41;;;;;;;2.80;1.00;;;;;;;;;;107339;285;42171;-34
2023/05/31 14:07:15;;;;;;;3.10;0.90;;;;;;;;;;107299;285;38779;-34
2023/05/31 14:09:48;;;;;;;2.80;1.00;;;;;;;;;;107284;286;39714;-35
2023/05/31 14:12:40;;;;;;;3.20;1.10;;;;;;;;;;107255;288;42780;-34
2023/05/31 14:15:32;;;;;;;2.30;1.00;;;;;;;;;;107308;287;42174;-35
2023/05/31 14:18:05;;;;;;;3.00;1.10;;;;;;;;;;107325;287;38770;-35
2023/05/31 14:20:39;;;;;;;2.70;1.00;;;;;;;;;;107324;285;40929;-35
2023/05/31 14:23:12;;;;;;;2.50;1.00;;;;;;;;;;107176;287;175439;-34
2023/05/31 14:25:46;;;;;;;2.70;1.10;;;;;;;;;;107321;287;42467;-34
2023/05/31 14:28:19;;;;;;;2.70;0.90;;;;;;;;;;107343;287;38771;-34
2023/05/31 14:30:52;;;;;;;3.70;1.20;;;;;;;;;;107303;285;40673;-34
2023/05/31 14:33:27;;;;;;;2.60;1.00;;;;;;;;;;107318;287;44158;-34
2023/05/31 14:36:02;;;;;;;2.60;1.00;;;;;;;;;;107311;289;42194;-34
2023/05/31 14:38:36;;;;;;;2.50;1.00;;;;;;;;;;107333;287;38806;-35
2023/05/31 14:41:09;;;;;;;2.90;1.10;;;;;;;;;;107323;284;40708;-35
2023/05/31 14:43:43;;;;;;;2.30;0.90;;;;;;;;;;107301;285;43005;-35
2023/05/31 14:46:16;;;;;;;2.90;1.00;;;;;;;;;;107317;287;43167;-34
2023/05/31 14:49:09;;;;;;;3.20;1.10;;;;;;;;;;107325;285;38781;-34
2023/05/31 14:51:42;;;;;;;3.10;1.00;;;;;;;;;;107319;284;39794;-35
2023/05/31 14:54:17;;;;;;;2.30;0.90;;;;;;;;;;107333;286;42959;-34
2023/05/31 14:56:52;;;;;;;3.60;1.10;;;;;;;;;;107373;285;42166;-35
2023/05/31 14:59:28;;;;;;;3.10;1.10;;;;;;;;;;107327;284;38756;-34
2023/05/31 15:02:21;;;;;;;2.70;1.00;;;;;;;;;;106653;285;910406;-34
2023/05/31 15:04:55;;;;;;;3.30;1.20;;;;;;;;;;107320;287;50066;-35
2023/05/31 15:07:30;;;;;;;3.20;1.10;;;;;;;;;;107329;284;42142;-34
2023/05/31 15:10:05;;;;;;;3.40;1.20;;;;;;;;;;107289;287;39040;-34
2023/05/31 15:12:42;;;;;;;2.70;1.10;;;;;;;;;;107290;287;39509;-36
2023/05/31 15:15:17;;;;;;;2.80;1.20;;;;;;;;;;107335;287;50078;-35
2023/05/31 15:17:53;;;;;;;3.50;1.10;;;;;;;;;;107334;285;42151;-34
2023/05/31 15:20:28;;;;;;;3.50;1.30;;;;;;;;;;107253;287;38828;-36
2023/05/31 15:23:03;;;;;;;3.20;1.10;;;;;;;;;;107324;285;39992;-36
2023/05/31 15:25:38;;;;;;;3.30;1.10;;;;;;;;;;107366;287;50363;-38
2023/05/31 15:28:12;;;;;;;3.60;1.20;;;;;;;;;;107385;286;41885;-37
2023/05/31 15:30:47;;;;;;;3.40;1.30;;;;;;;;;;107358;285;38765;-36
2023/05/31 15:33:23;;;;;;;3.00;1.20;;;;;;;;;;107328;287;39719;-36